sensor_id;sensor_type;location;lat;lon;timestamp;P1;durP1;ratioP1;P2;durP2;ratioP2
61338;SDS011;47213;52.362;4.606;2023-05-10T00:00:58;25.90;;;18.10;;
61338;SDS011;47213;52.362;4.606;2023-05-10T00:10:58;26.70;;;18.30;;
61338;SDS011;47213;52.362;4.606;2023-05-10T00:15:58;26.70;;;18.30;;
61338;SDS011;47213;52.362;4.606;2023-05-10T00:20:58;31.40;;;19.50;;
61338;SDS011;47213;52.362;4.606;2023-05-10T00:30:58;30.20;;;19.80;;
61338;SDS011;47213;52.362;4.606;2023-05-10T00:35:58;30.20;;;19.80;;
61338;SDS011;47213;52.362;4.606;2023-05-10T00:40:58;28.70;;;19.70;;
61338;SDS011;47213;52.362;4.606;2023-05-10T00:45:58;28.70;;;19.70;;
61338;SDS011;47213;52.362;4.606;2023-05-10T00:50:58;27.50;;;18.20;;
61338;SDS011;47213;52.362;4.606;2023-05-10T00:55:59;27.50;;;18.20;;
61338;SDS011;47213;52.362;4.606;2023-05-10T01:10:58;25.40;;;18.60;;
61338;SDS011;47213;52.362;4.606;2023-05-10T01:15:59;25.40;;;18.60;;
61338;SDS011;47213;52.362;4.606;2023-05-10T01:21:07;29.50;;;19.60;;
61338;SDS011;47213;52.362;4.606;2023-05-10T01:46:02;28.60;;;18.30;;
61338;SDS011;47213;52.362;4.606;2023-05-10T01:50:58;30.40;;;18.10;;
61338;SDS011;47213;52.362;4.606;2023-05-10T02:01:01;30.40;;;18.20;;
61338;SDS011;47213;52.362;4.606;2023-05-10T02:05:58;30.40;;;18.20;;
61338;SDS011;47213;52.362;4.606;2023-05-10T02:10:59;34.50;;;21.50;;
61338;SDS011;47213;52.362;4.606;2023-05-10T02:15:59;34.50;;;21.50;;
61338;SDS011;47213;52.362;4.606;2023-05-10T02:20:59;29.80;;;15.40;;
61338;SDS011;47213;52.362;4.606;2023-05-10T02:40:59;29.40;;;12.50;;
61338;SDS011;47213;52.362;4.606;2023-05-10T02:45:58;29.40;;;12.50;;
61338;SDS011;47213;52.362;4.606;2023-05-10T02:51:05;24.30;;;10.40;;
61338;SDS011;47213;52.362;4.606;2023-05-10T02:56:01;24.30;;;10.40;;
61338;SDS011;47213;52.362;4.606;2023-05-10T03:05:58;20.40;;;11.40;;
61338;SDS011;47213;52.362;4.606;2023-05-10T03:16:08;20.40;;;11.30;;
61338;SDS011;47213;52.362;4.606;2023-05-10T03:21:02;23.70;;;12.80;;
61338;SDS011;47213;52.362;4.606;2023-05-10T03:46:01;24.40;;;12.60;;
61338;SDS011;47213;52.362;4.606;2023-05-10T03:50:58;21.70;;;11.90;;
61338;SDS011;47213;52.362;4.606;2023-05-10T03:55:58;21.70;;;11.90;;
61338;SDS011;47213;52.362;4.606;2023-05-10T04:00:59;21.00;;;11.70;;
61338;SDS011;47213;52.362;4.606;2023-05-10T04:11:09;22.60;;;12.30;;
61338;SDS011;47213;52.362;4.606;2023-05-10T04:20:59;25.00;;;13.20;;
61338;SDS011;47213;52.362;4.606;2023-05-10T04:26:00;25.00;;;13.20;;
61338;SDS011;47213;52.362;4.606;2023-05-10T04:35:59;24.60;;;13.30;;
61338;SDS011;47213;52.362;4.606;2023-05-10T04:50:59;25.40;;;13.90;;
61338;SDS011;47213;52.362;4.606;2023-05-10T05:01:06;23.60;;;12.90;;
61338;SDS011;47213;52.362;4.606;2023-05-10T05:10:59;21.50;;;12.70;;
61338;SDS011;47213;52.362;4.606;2023-05-10T05:16:00;21.50;;;12.70;;
61338;SDS011;47213;52.362;4.606;2023-05-10T05:25:59;20.40;;;12.20;;
61338;SDS011;47213;52.362;4.606;2023-05-10T05:31:00;22.70;;;12.30;;
61338;SDS011;47213;52.362;4.606;2023-05-10T05:36:01;22.70;;;12.30;;
61338;SDS011;47213;52.362;4.606;2023-05-10T05:40:59;19.20;;;11.20;;
61338;SDS011;47213;52.362;4.606;2023-05-10T05:45:59;19.20;;;11.20;;
61338;SDS011;47213;52.362;4.606;2023-05-10T05:50:59;24.00;;;12.50;;
61338;SDS011;47213;52.362;4.606;2023-05-10T05:55:59;24.00;;;12.50;;
61338;SDS011;47213;52.362;4.606;2023-05-10T06:00:59;19.30;;;10.40;;
61338;SDS011;47213;52.362;4.606;2023-05-10T06:05:59;19.30;;;10.40;;
61338;SDS011;47213;52.362;4.606;2023-05-10T06:10:59;19.00;;;10.10;;
61338;SDS011;47213;52.362;4.606;2023-05-10T06:15:59;19.00;;;10.10;;
61338;SDS011;47213;52.362;4.606;2023-05-10T06:20:59;17.30;;;9.60;;
61338;SDS011;47213;52.362;4.606;2023-05-10T06:25:59;17.30;;;9.60;;
61338;SDS011;47213;52.362;4.606;2023-05-10T06:35:59;15.30;;;9.00;;
61338;SDS011;47213;52.362;4.606;2023-05-10T06:40:59;12.60;;;6.60;;
61338;SDS011;47213;52.362;4.606;2023-05-10T06:45:59;12.60;;;6.60;;
61338;SDS011;47213;52.362;4.606;2023-05-10T06:50:59;11.70;;;6.30;;
61338;SDS011;47213;52.362;4.606;2023-05-10T06:55:59;11.70;;;6.30;;
61338;SDS011;47213;52.362;4.606;2023-05-10T07:01:03;11.50;;;6.00;;
61338;SDS011;47213;52.362;4.606;2023-05-10T07:06:00;11.50;;;6.00;;
61338;SDS011;47213;52.362;4.606;2023-05-10T07:11:02;10.70;;;6.40;;
61338;SDS011;47213;52.362;4.606;2023-05-10T07:16:00;10.70;;;6.40;;
61338;SDS011;47213;52.362;4.606;2023-05-10T07:20:59;11.90;;;6.70;;
61338;SDS011;47213;52.362;4.606;2023-05-10T07:25:59;11.90;;;6.70;;
61338;SDS011;47213;52.362;4.606;2023-05-10T07:30:59;12.50;;;6.90;;
61338;SDS011;47213;52.362;4.606;2023-05-10T07:35:59;12.50;;;6.90;;
61338;SDS011;47213;52.362;4.606;2023-05-10T07:40:59;13.30;;;7.00;;
61338;SDS011;47213;52.362;4.606;2023-05-10T07:45:59;13.30;;;7.00;;
61338;SDS011;47213;52.362;4.606;2023-05-10T07:56:26;10.50;;;6.30;;
61338;SDS011;47213;52.362;4.606;2023-05-10T08:00:59;9.70;;;5.30;;
61338;SDS011;47213;52.362;4.606;2023-05-10T08:10:59;12.00;;;5.50;;
61338;SDS011;47213;52.362;4.606;2023-05-10T08:15:59;12.00;;;5.50;;
61338;SDS011;47213;52.362;4.606;2023-05-10T08:20:59;11.50;;;5.90;;
61338;SDS011;47213;52.362;4.606;2023-05-10T08:25:59;11.50;;;5.90;;
61338;SDS011;47213;52.362;4.606;2023-05-10T08:30:59;10.50;;;5.00;;
61338;SDS011;47213;52.362;4.606;2023-05-10T08:41:01;12.00;;;5.50;;
61338;SDS011;47213;52.362;4.606;2023-05-10T08:46:00;12.00;;;5.50;;
61338;SDS011;47213;52.362;4.606;2023-05-10T08:51:00;12.20;;;6.10;;
61338;SDS011;47213;52.362;4.606;2023-05-10T08:56:01;12.20;;;6.10;;
61338;SDS011;47213;52.362;4.606;2023-05-10T09:01:00;11.90;;;6.40;;
61338;SDS011;47213;52.362;4.606;2023-05-10T09:05:59;11.90;;;6.40;;
61338;SDS011;47213;52.362;4.606;2023-05-10T09:11:00;11.70;;;6.20;;
61338;SDS011;47213;52.362;4.606;2023-05-10T09:15:59;11.70;;;6.20;;
61338;SDS011;47213;52.362;4.606;2023-05-10T09:20:59;11.70;;;5.90;;
61338;SDS011;47213;52.362;4.606;2023-05-10T09:26:04;11.70;;;5.90;;
61338;SDS011;47213;52.362;4.606;2023-05-10T09:30:59;11.20;;;5.80;;
61338;SDS011;47213;52.362;4.606;2023-05-10T09:36:06;11.20;;;5.80;;
61338;SDS011;47213;52.362;4.606;2023-05-10T09:41:00;13.80;;;6.50;;
61338;SDS011;47213;52.362;4.606;2023-05-10T09:46:08;13.80;;;6.50;;
61338;SDS011;47213;52.362;4.606;2023-05-10T09:50:59;16.40;;;7.20;;
61338;SDS011;47213;52.362;4.606;2023-05-10T09:55:59;16.40;;;7.20;;
61338;SDS011;47213;52.362;4.606;2023-05-10T10:00:59;11.30;;;5.20;;
61338;SDS011;47213;52.362;4.606;2023-05-10T10:11:00;11.20;;;5.80;;
61338;SDS011;47213;52.362;4.606;2023-05-10T10:20:59;14.00;;;8.10;;
61338;SDS011;47213;52.362;4.606;2023-05-10T10:26:00;14.00;;;8.10;;
61338;SDS011;47213;52.362;4.606;2023-05-10T10:31:02;16.70;;;8.80;;
61338;SDS011;47213;52.362;4.606;2023-05-10T10:36:01;16.70;;;8.80;;
61338;SDS011;47213;52.362;4.606;2023-05-10T10:41:10;20.50;;;10.20;;
61338;SDS011;47213;52.362;4.606;2023-05-10T10:46:10;20.50;;;10.20;;
61338;SDS011;47213;52.362;4.606;2023-05-10T10:51:00;21.50;;;10.50;;
61338;SDS011;47213;52.362;4.606;2023-05-10T10:56:09;21.50;;;10.50;;
61338;SDS011;47213;52.362;4.606;2023-05-10T11:01:10;20.00;;;9.50;;
61338;SDS011;47213;52.362;4.606;2023-05-10T11:06:00;20.00;;;9.50;;
61338;SDS011;47213;52.362;4.606;2023-05-10T11:16:14;19.60;;;10.00;;
61338;SDS011;47213;52.362;4.606;2023-05-10T11:21:01;18.00;;;9.70;;
61338;SDS011;47213;52.362;4.606;2023-05-10T11:31:00;17.40;;;8.90;;
61338;SDS011;47213;52.362;4.606;2023-05-10T11:36:00;17.40;;;8.90;;
61338;SDS011;47213;52.362;4.606;2023-05-10T11:41:00;17.00;;;9.40;;
61338;SDS011;47213;52.362;4.606;2023-05-10T11:46:00;17.00;;;9.40;;
61338;SDS011;47213;52.362;4.606;2023-05-10T11:51:00;14.20;;;9.00;;
61338;SDS011;47213;52.362;4.606;2023-05-10T11:56:09;14.20;;;9.00;;
61338;SDS011;47213;52.362;4.606;2023-05-10T12:01:00;15.00;;;9.20;;
61338;SDS011;47213;52.362;4.606;2023-05-10T12:11:08;16.00;;;9.60;;
61338;SDS011;47213;52.362;4.606;2023-05-10T12:16:17;16.00;;;9.60;;
61338;SDS011;47213;52.362;4.606;2023-05-10T12:21:03;22.00;;;11.70;;
61338;SDS011;47213;52.362;4.606;2023-05-10T12:26:03;22.00;;;11.70;;
61338;SDS011;47213;52.362;4.606;2023-05-10T12:36:00;20.60;;;11.10;;
61338;SDS011;47213;52.362;4.606;2023-05-10T12:46:08;21.00;;;10.60;;
61338;SDS011;47213;52.362;4.606;2023-05-10T12:51:01;18.70;;;9.30;;
61338;SDS011;47213;52.362;4.606;2023-05-10T12:56:00;18.70;;;9.30;;
61338;SDS011;47213;52.362;4.606;2023-05-10T13:01:00;17.50;;;9.40;;
61338;SDS011;47213;52.362;4.606;2023-05-10T13:06:00;17.50;;;9.40;;
61338;SDS011;47213;52.362;4.606;2023-05-10T13:11:01;18.90;;;10.70;;
61338;SDS011;47213;52.362;4.606;2023-05-10T13:16:00;18.90;;;10.70;;
61338;SDS011;47213;52.362;4.606;2023-05-10T13:21:00;20.60;;;11.00;;
61338;SDS011;47213;52.362;4.606;2023-05-10T13:26:00;20.60;;;11.00;;
61338;SDS011;47213;52.362;4.606;2023-05-10T13:31:00;21.70;;;10.40;;
61338;SDS011;47213;52.362;4.606;2023-05-10T13:36:00;21.70;;;10.40;;
61338;SDS011;47213;52.362;4.606;2023-05-10T13:41:00;20.00;;;10.20;;
61338;SDS011;47213;52.362;4.606;2023-05-10T13:46:00;20.00;;;10.20;;
61338;SDS011;47213;52.362;4.606;2023-05-10T13:51:00;17.90;;;9.90;;
61338;SDS011;47213;52.362;4.606;2023-05-10T13:56:00;17.90;;;9.90;;
61338;SDS011;47213;52.362;4.606;2023-05-10T14:01:00;19.50;;;10.00;;
61338;SDS011;47213;52.362;4.606;2023-05-10T14:11:00;14.30;;;8.00;;
61338;SDS011;47213;52.362;4.606;2023-05-10T14:16:00;14.30;;;8.00;;
61338;SDS011;47213;52.362;4.606;2023-05-10T14:21:01;13.80;;;7.90;;
61338;SDS011;47213;52.362;4.606;2023-05-10T14:26:00;13.80;;;7.90;;
61338;SDS011;47213;52.362;4.606;2023-05-10T14:31:00;11.70;;;7.10;;
61338;SDS011;47213;52.362;4.606;2023-05-10T14:36:00;11.70;;;7.10;;
61338;SDS011;47213;52.362;4.606;2023-05-10T14:41:00;13.70;;;8.00;;
61338;SDS011;47213;52.362;4.606;2023-05-10T14:46:00;13.70;;;8.00;;
61338;SDS011;47213;52.362;4.606;2023-05-10T14:56:00;13.40;;;7.60;;
61338;SDS011;47213;52.362;4.606;2023-05-10T15:06:00;11.60;;;7.20;;
61338;SDS011;47213;52.362;4.606;2023-05-10T15:16:00;9.60;;;5.70;;
61338;SDS011;47213;52.362;4.606;2023-05-10T15:21:00;10.70;;;6.30;;
61338;SDS011;47213;52.362;4.606;2023-05-10T15:26:01;10.70;;;6.30;;
61338;SDS011;47213;52.362;4.606;2023-05-10T15:36:00;11.50;;;7.00;;
61338;SDS011;47213;52.362;4.606;2023-05-10T15:41:00;12.30;;;7.30;;
61338;SDS011;47213;52.362;4.606;2023-05-10T15:46:00;12.30;;;7.30;;
61338;SDS011;47213;52.362;4.606;2023-05-10T15:51:00;12.50;;;7.00;;
61338;SDS011;47213;52.362;4.606;2023-05-10T15:56:00;12.50;;;7.00;;
61338;SDS011;47213;52.362;4.606;2023-05-10T16:01:00;12.80;;;6.60;;
61338;SDS011;47213;52.362;4.606;2023-05-10T16:16:00;11.10;;;6.40;;
61338;SDS011;47213;52.362;4.606;2023-05-10T16:21:00;10.00;;;5.90;;
61338;SDS011;47213;52.362;4.606;2023-05-10T16:26:00;10.00;;;5.90;;
61338;SDS011;47213;52.362;4.606;2023-05-10T16:31:00;10.60;;;6.10;;
61338;SDS011;47213;52.362;4.606;2023-05-10T16:36:00;10.60;;;6.10;;
61338;SDS011;47213;52.362;4.606;2023-05-10T16:41:01;9.70;;;5.60;;
61338;SDS011;47213;52.362;4.606;2023-05-10T16:46:01;9.70;;;5.60;;
61338;SDS011;47213;52.362;4.606;2023-05-10T16:51:01;10.40;;;6.30;;
61338;SDS011;47213;52.362;4.606;2023-05-10T16:56:02;10.40;;;6.30;;
61338;SDS011;47213;52.362;4.606;2023-05-10T17:01:01;12.10;;;7.10;;
61338;SDS011;47213;52.362;4.606;2023-05-10T17:06:01;12.10;;;7.10;;
61338;SDS011;47213;52.362;4.606;2023-05-10T17:11:01;12.10;;;6.90;;
61338;SDS011;47213;52.362;4.606;2023-05-10T17:16:01;12.10;;;6.90;;
61338;SDS011;47213;52.362;4.606;2023-05-10T17:21:01;13.10;;;7.10;;
61338;SDS011;47213;52.362;4.606;2023-05-10T17:26:03;13.10;;;7.10;;
61338;SDS011;47213;52.362;4.606;2023-05-10T17:31:01;13.80;;;7.70;;
61338;SDS011;47213;52.362;4.606;2023-05-10T17:36:01;13.80;;;7.70;;
61338;SDS011;47213;52.362;4.606;2023-05-10T17:41:01;14.30;;;8.20;;
61338;SDS011;47213;52.362;4.606;2023-05-10T17:46:01;14.30;;;8.20;;
61338;SDS011;47213;52.362;4.606;2023-05-10T17:51:02;13.20;;;8.50;;
61338;SDS011;47213;52.362;4.606;2023-05-10T18:01:01;12.90;;;8.10;;
61338;SDS011;47213;52.362;4.606;2023-05-10T18:06:01;12.90;;;8.10;;
61338;SDS011;47213;52.362;4.606;2023-05-10T18:11:51;unavailable;;;unavailable;;
61338;SDS011;47213;52.362;4.606;2023-05-10T18:11:52;12.60;;;8.20;;
61338;SDS011;47213;52.362;4.606;2023-05-10T18:11:52;12.60;;;8.20;;
61338;SDS011;47213;52.362;4.606;2023-05-10T18:16:01;12.60;;;8.20;;
61338;SDS011;47213;52.362;4.606;2023-05-10T18:19:26;unavailable;;;unavailable;;
61338;SDS011;47213;52.362;4.606;2023-05-10T18:19:27;unavailable;;;unavailable;;
61338;SDS011;47213;52.362;4.606;2023-05-10T18:19:28;12.60;;;8.20;;
61338;SDS011;47213;52.362;4.606;2023-05-10T18:26:01;13.10;;;8.30;;
61338;SDS011;47213;52.362;4.606;2023-05-10T18:31:01;14.40;;;8.80;;
61338;SDS011;47213;52.362;4.606;2023-05-10T18:36:01;14.40;;;8.80;;
61338;SDS011;47213;52.362;4.606;2023-05-10T18:41:01;12.20;;;8.00;;
61338;SDS011;47213;52.362;4.606;2023-05-10T18:56:01;12.40;;;7.40;;
61338;SDS011;47213;52.362;4.606;2023-05-10T19:01:01;11.70;;;7.00;;
61338;SDS011;47213;52.362;4.606;2023-05-10T19:06:01;11.70;;;7.00;;
61338;SDS011;47213;52.362;4.606;2023-05-10T19:11:01;15.10;;;8.70;;
61338;SDS011;47213;52.362;4.606;2023-05-10T19:16:04;15.10;;;8.70;;
61338;SDS011;47213;52.362;4.606;2023-05-10T19:21:01;18.70;;;9.60;;
61338;SDS011;47213;52.362;4.606;2023-05-10T19:26:01;18.70;;;9.60;;
61338;SDS011;47213;52.362;4.606;2023-05-10T19:41:01;17.40;;;8.60;;
61338;SDS011;47213;52.362;4.606;2023-05-10T19:51:04;18.40;;;9.30;;
61338;SDS011;47213;52.362;4.606;2023-05-10T20:06:01;20.20;;;9.50;;
61338;SDS011;47213;52.362;4.606;2023-05-10T20:11:01;20.20;;;9.50;;
61338;SDS011;47213;52.362;4.606;2023-05-10T20:21:01;15.40;;;8.10;;
61338;SDS011;47213;52.362;4.606;2023-05-10T20:26:01;17.40;;;8.70;;
61338;SDS011;47213;52.362;4.606;2023-05-10T20:31:01;17.40;;;8.70;;
61338;SDS011;47213;52.362;4.606;2023-05-10T20:46:01;19.70;;;7.70;;
61338;SDS011;47213;52.362;4.606;2023-05-10T20:51:01;19.70;;;7.70;;
61338;SDS011;47213;52.362;4.606;2023-05-10T21:01:01;16.90;;;7.80;;
61338;SDS011;47213;52.362;4.606;2023-05-10T21:06:01;17.90;;;8.20;;
61338;SDS011;47213;52.362;4.606;2023-05-10T21:11:02;17.90;;;8.20;;
61338;SDS011;47213;52.362;4.606;2023-05-10T21:16:02;18.00;;;8.10;;
61338;SDS011;47213;52.362;4.606;2023-05-10T21:21:01;18.00;;;8.10;;
61338;SDS011;47213;52.362;4.606;2023-05-10T21:26:02;16.10;;;7.80;;
61338;SDS011;47213;52.362;4.606;2023-05-10T21:31:01;16.10;;;7.80;;
61338;SDS011;47213;52.362;4.606;2023-05-10T21:36:01;13.10;;;6.70;;
61338;SDS011;47213;52.362;4.606;2023-05-10T21:41:05;9.20;;;4.60;;
61338;SDS011;47213;52.362;4.606;2023-05-10T21:46:01;9.20;;;4.60;;
61338;SDS011;47213;52.362;4.606;2023-05-10T21:51:01;9.20;;;4.60;;
61338;SDS011;47213;52.362;4.606;2023-05-10T21:56:01;7.90;;;4.20;;
61338;SDS011;47213;52.362;4.606;2023-05-10T22:01:01;7.90;;;4.20;;
61338;SDS011;47213;52.362;4.606;2023-05-10T22:16:01;9.80;;;4.40;;
61338;SDS011;47213;52.362;4.606;2023-05-10T22:21:01;9.80;;;4.40;;
61338;SDS011;47213;52.362;4.606;2023-05-10T22:26:02;9.70;;;4.90;;
61338;SDS011;47213;52.362;4.606;2023-05-10T22:31:01;9.70;;;4.90;;
61338;SDS011;47213;52.362;4.606;2023-05-10T22:36:01;10.30;;;5.20;;
61338;SDS011;47213;52.362;4.606;2023-05-10T22:41:01;10.30;;;5.20;;
61338;SDS011;47213;52.362;4.606;2023-05-10T22:51:01;9.70;;;5.20;;
61338;SDS011;47213;52.362;4.606;2023-05-10T22:56:02;10.60;;;5.20;;
61338;SDS011;47213;52.362;4.606;2023-05-10T23:06:02;11.50;;;5.70;;
61338;SDS011;47213;52.362;4.606;2023-05-10T23:11:02;11.50;;;5.70;;
61338;SDS011;47213;52.362;4.606;2023-05-10T23:16:05;11.90;;;5.40;;
61338;SDS011;47213;52.362;4.606;2023-05-10T23:21:01;11.90;;;5.40;;
61338;SDS011;47213;52.362;4.606;2023-05-10T23:26:02;10.80;;;5.40;;
61338;SDS011;47213;52.362;4.606;2023-05-10T23:36:02;11.00;;;5.80;;
61338;SDS011;47213;52.362;4.606;2023-05-10T23:41:02;11.00;;;5.80;;
61338;SDS011;47213;52.362;4.606;2023-05-10T23:46:02;13.40;;;6.30;;
